createdAt,value
2018-03-23T00:02:46.556Z,1.20
2018-03-23T00:07:50.269Z,1.20
2018-03-23T00:12:53.888Z,1.40
2018-03-23T00:17:57.511Z,1.50
2018-03-23T00:23:01.152Z,1.50
2018-03-23T00:28:05.110Z,1.50
2018-03-23T00:33:08.437Z,1.60
2018-03-23T00:38:11.841Z,1.70
2018-03-23T00:43:15.192Z,1.50
2018-03-23T00:48:18.474Z,1.50
2018-03-23T00:53:22.194Z,1.50
2018-03-23T00:58:26.829Z,1.50
2018-03-23T01:03:30.456Z,1.40
2018-03-23T01:08:33.740Z,1.40
2018-03-23T01:13:37.006Z,1.50
2018-03-23T01:18:40.211Z,1.50
2018-03-23T01:23:44.772Z,1.50
2018-03-23T01:28:48.048Z,1.40
2018-03-23T01:33:51.320Z,1.50
2018-03-23T01:38:55.642Z,1.50
2018-03-23T01:43:59.458Z,1.50
2018-03-23T01:49:02.721Z,1.50
2018-03-23T01:54:05.927Z,1.50
2018-03-23T01:59:10.172Z,1.40
2018-03-23T02:04:13.393Z,1.40
2018-03-23T02:09:16.709Z,1.40
2018-03-23T02:14:19.944Z,1.50
2018-03-23T02:19:23.241Z,1.50
2018-03-23T02:24:26.517Z,1.50
2018-03-23T02:29:30.219Z,1.50
2018-03-23T02:34:33.555Z,1.50
2018-03-23T02:39:39.305Z,1.50
2018-03-23T02:44:42.831Z,1.60
2018-03-23T02:49:46.068Z,1.60
2018-03-23T02:54:49.448Z,1.70
2018-03-23T02:59:53.065Z,1.70
2018-03-23T03:04:56.955Z,1.70
2018-03-23T03:10:00.179Z,1.70
2018-03-23T03:15:03.700Z,1.60
2018-03-23T03:20:07.029Z,1.60
2018-03-23T03:25:10.275Z,1.60
2018-03-23T03:30:13.520Z,1.60
2018-03-23T03:35:16.862Z,1.70
2018-03-23T03:40:20.093Z,1.60
2018-03-23T03:45:23.476Z,1.70
2018-03-23T03:50:41.906Z,1.70
2018-03-23T03:55:45.149Z,1.70
2018-03-23T04:00:48.537Z,1.70
2018-03-23T04:05:52.246Z,1.80
2018-03-23T04:10:56.363Z,1.80
2018-03-23T04:16:01.463Z,1.80
2018-03-23T04:21:04.803Z,1.80
2018-03-23T04:26:08.054Z,1.90
2018-03-23T04:31:11.335Z,1.90
2018-03-23T04:36:14.543Z,1.90
2018-03-23T04:41:17.847Z,1.90
2018-03-23T04:46:21.168Z,1.80
2018-03-23T04:51:24.856Z,1.90
2018-03-23T04:56:28.075Z,1.90
2018-03-23T05:01:31.353Z,1.80
2018-03-23T05:06:34.587Z,1.80
2018-03-23T05:11:37.826Z,1.70
2018-03-23T05:16:41.048Z,1.70
2018-03-23T05:21:44.301Z,1.70
2018-03-23T05:26:47.535Z,1.70
2018-03-23T05:31:50.777Z,1.80
2018-03-23T05:36:54.006Z,1.80
2018-03-23T05:41:57.255Z,1.80
2018-03-23T05:47:00.469Z,1.80
2018-03-23T05:52:03.730Z,1.90
2018-03-23T05:57:07.959Z,1.80
2018-03-23T06:02:11.229Z,1.80
2018-03-23T06:07:14.451Z,1.80
2018-03-23T06:12:19.693Z,1.80
2018-03-23T06:17:22.907Z,1.90
2018-03-23T06:22:28.168Z,1.90
2018-03-23T06:27:31.391Z,1.90
2018-03-23T06:32:34.689Z,1.90
2018-03-23T06:37:37.895Z,2.00
2018-03-23T06:42:41.204Z,2.10
2018-03-23T06:47:44.462Z,2.20
2018-03-23T06:52:47.688Z,2.10
2018-03-23T06:57:51.039Z,2.10
2018-03-23T07:02:54.284Z,2.10
2018-03-23T07:07:57.501Z,2.10
2018-03-23T07:13:00.788Z,2.10
2018-03-23T07:18:04.033Z,2.00
2018-03-23T07:23:07.245Z,2.20
2018-03-23T07:28:10.452Z,2.30
2018-03-23T07:33:13.693Z,2.30
2018-03-23T07:38:17.332Z,2.50
2018-03-23T07:43:20.548Z,2.50
2018-03-23T07:48:23.785Z,2.60
2018-03-23T07:53:27.118Z,2.60
2018-03-23T07:58:30.747Z,2.70
2018-03-23T08:03:34.446Z,2.60
2018-03-23T08:08:37.676Z,2.60
2018-03-23T08:13:40.917Z,2.60
2018-03-23T08:18:44.150Z,2.70
2018-03-23T08:23:47.470Z,2.90
2018-03-23T08:28:51.083Z,3.40
2018-03-23T08:33:54.392Z,3.40
2018-03-23T08:38:57.618Z,3.60
2018-03-23T08:44:01.247Z,4.00
2018-03-23T08:49:04.497Z,4.00
2018-03-23T08:54:07.856Z,4.10
2018-03-23T08:59:11.134Z,4.00
2018-03-23T09:04:15.362Z,4.10
2018-03-23T09:09:19.080Z,4.50
2018-03-23T09:14:22.302Z,4.50
2018-03-23T09:19:25.912Z,5.00
2018-03-23T09:24:29.524Z,4.90
2018-03-23T09:29:33.141Z,5.30
2018-03-23T09:34:36.751Z,5.50
2018-03-23T09:39:40.367Z,5.30
2018-03-23T09:44:44.084Z,5.30
2018-03-23T09:49:47.814Z,5.60
2018-03-23T09:54:51.101Z,5.60
2018-03-23T09:59:54.316Z,5.30
2018-03-23T10:04:57.923Z,5.70
2018-03-23T10:10:01.184Z,5.70
2018-03-23T10:15:04.403Z,5.90
2018-03-23T10:20:07.648Z,5.90
2018-03-23T10:25:11.257Z,7.10
2018-03-23T10:30:14.887Z,7.50
2018-03-23T10:35:18.513Z,7.20
2018-03-23T10:40:21.717Z,7.20
2018-03-23T10:45:24.974Z,7.10
2018-03-23T10:50:28.192Z,6.80
2018-03-23T10:55:31.506Z,6.70
2018-03-23T11:00:40.269Z,7.30
2018-03-23T11:05:43.489Z,7.40
2018-03-23T11:10:46.854Z,7.50
2018-03-23T11:15:50.162Z,7.80
2018-03-23T11:20:53.778Z,8.60
2018-03-23T11:25:57.497Z,9.40
2018-03-23T11:31:01.163Z,9.70
2018-03-23T11:36:04.421Z,9.70
2018-03-23T11:41:07.723Z,10.70
2018-03-23T11:46:10.997Z,12.20
2018-03-23T11:51:14.242Z,13.20
2018-03-23T11:56:17.878Z,13.70
2018-03-23T12:01:21.105Z,13.70
2018-03-23T12:06:24.311Z,13.20
2018-03-23T12:11:27.541Z,13.00
2018-03-23T12:16:30.774Z,11.80
2018-03-23T12:21:34.094Z,12.40
2018-03-23T12:26:37.803Z,11.90
2018-03-23T12:31:42.254Z,10.70
2018-03-23T12:36:45.493Z,10.70
2018-03-23T12:41:48.768Z,10.60
2018-03-23T12:46:51.985Z,11.30
2018-03-23T12:51:55.225Z,11.50
2018-03-23T12:56:58.495Z,10.60
2018-03-23T13:02:01.864Z,10.90
2018-03-23T13:07:05.123Z,11.10
2018-03-23T13:12:08.339Z,10.30
2018-03-23T13:17:11.607Z,10.60
2018-03-23T13:22:15.245Z,10.20
2018-03-23T13:27:18.513Z,10.20
2018-03-23T13:32:21.921Z,10.00
2018-03-23T13:37:25.182Z,10.50
2018-03-23T13:42:28.568Z,10.40
2018-03-23T13:47:32.049Z,10.60
2018-03-23T13:52:35.688Z,11.20
2018-03-23T13:57:38.911Z,11.20
2018-03-23T14:02:42.197Z,10.60
2018-03-23T14:07:45.584Z,10.40
2018-03-23T14:12:48.996Z,10.20
2018-03-23T14:17:52.325Z,9.50
2018-03-23T14:22:56.027Z,9.20
2018-03-23T14:27:59.763Z,9.00
2018-03-23T14:33:03.157Z,9.00
2018-03-23T14:38:06.822Z,8.90
2018-03-23T14:43:10.273Z,8.90
2018-03-23T14:48:13.931Z,9.10
2018-03-23T14:53:17.404Z,9.10
2018-03-23T14:58:21.117Z,9.00
2018-03-23T15:03:24.356Z,9.00
2018-03-23T15:08:29.848Z,9.00
2018-03-23T15:13:33.275Z,8.70
2018-03-23T15:18:36.509Z,8.70
2018-03-23T15:23:40.124Z,8.60
2018-03-23T15:28:43.778Z,8.80
2018-03-23T15:33:47.000Z,8.80
2018-03-23T15:38:50.382Z,8.60
2018-03-23T15:43:53.620Z,8.40
2018-03-23T15:48:57.026Z,8.10
2018-03-23T15:54:02.043Z,7.80
2018-03-23T15:59:06.232Z,7.80
2018-03-23T16:04:09.625Z,7.90
2018-03-23T16:09:12.901Z,7.90
2018-03-23T16:14:16.224Z,8.20
2018-03-23T16:19:19.580Z,7.80
2018-03-23T16:24:23.302Z,7.30
2018-03-23T16:29:26.980Z,7.30
2018-03-23T16:34:30.313Z,7.30
2018-03-23T16:39:33.948Z,7.00
2018-03-23T16:44:37.643Z,6.80
2018-03-23T16:49:40.885Z,6.80
2018-03-23T16:54:44.204Z,6.70
2018-03-23T16:59:47.569Z,6.40
2018-03-23T17:04:51.316Z,6.20
2018-03-23T17:09:55.609Z,6.20
2018-03-23T17:14:58.920Z,6.00
2018-03-23T17:20:02.229Z,5.80
2018-03-23T17:25:05.600Z,5.70
2018-03-23T17:30:08.948Z,5.60
2018-03-23T17:35:12.165Z,5.40
2018-03-23T17:40:15.971Z,5.00
2018-03-23T17:45:19.668Z,4.70
2018-03-23T17:50:22.996Z,4.80
2018-03-23T17:55:26.277Z,4.60
2018-03-23T18:00:29.615Z,4.50
2018-03-23T18:05:32.940Z,4.40
2018-03-23T18:10:36.582Z,3.90
2018-03-23T18:15:40.045Z,3.90
2018-03-23T18:20:43.293Z,3.80
2018-03-23T18:25:46.570Z,3.80
2018-03-23T18:30:50.232Z,3.40
2018-03-23T18:35:53.479Z,3.40
2018-03-23T18:40:57.886Z,3.10
2018-03-23T18:46:01.177Z,3.10
2018-03-23T18:51:04.433Z,3.20
2018-03-23T18:56:08.053Z,3.20
2018-03-23T19:01:11.688Z,3.10
2018-03-23T19:06:14.938Z,3.10
2018-03-23T19:11:18.186Z,3.10
2018-03-23T19:16:21.524Z,2.90
2018-03-23T19:21:24.867Z,2.80
2018-03-23T19:26:28.100Z,2.50
2018-03-23T19:31:31.332Z,2.40
2018-03-23T19:36:34.582Z,2.30
2018-03-23T19:41:38.870Z,2.20
2018-03-23T19:46:42.127Z,1.90
2018-03-23T19:51:45.412Z,1.80
2018-03-23T19:56:49.047Z,1.80
2018-03-23T20:01:52.351Z,1.80
2018-03-23T20:06:55.591Z,1.70
2018-03-23T20:11:58.851Z,1.80
2018-03-23T20:17:02.167Z,1.90
2018-03-23T20:22:05.791Z,2.00
2018-03-23T20:32:44.909Z,1.90
2018-03-23T20:37:48.422Z,1.80
2018-03-23T20:42:52.106Z,1.60
2018-03-23T20:47:55.448Z,1.60
2018-03-23T20:52:59.251Z,1.40
2018-03-23T20:58:02.974Z,1.30
2018-03-23T21:03:06.625Z,1.20
2018-03-23T21:08:10.007Z,1.20
2018-03-23T21:13:13.382Z,1.40
2018-03-23T21:18:17.069Z,1.40
2018-03-23T21:23:20.397Z,1.40
2018-03-23T21:28:23.672Z,1.40
2018-03-23T21:33:26.982Z,1.30
2018-03-23T21:38:30.290Z,1.40
2018-03-23T21:43:33.828Z,1.50
2018-03-23T21:48:37.220Z,1.40
2018-03-23T21:53:40.520Z,1.40
2018-03-23T21:58:43.749Z,1.40
2018-03-23T22:03:47.263Z,1.20
2018-03-23T22:08:50.494Z,1.10
2018-03-23T22:13:55.316Z,1.20
2018-03-23T22:18:59.720Z,1.10
2018-03-23T22:24:03.453Z,1.10
2018-03-23T22:29:06.828Z,1.10
2018-03-23T22:34:10.095Z,0.90
2018-03-23T22:39:13.495Z,0.70
2018-03-23T22:44:16.933Z,0.50
2018-03-23T22:49:20.761Z,0.50
2018-03-23T22:54:23.996Z,0.50
2018-03-23T22:59:28.875Z,0.60
2018-03-23T23:04:32.106Z,0.60
2018-03-23T23:09:35.594Z,0.60
2018-03-23T23:14:39.282Z,0.60
2018-03-23T23:19:43.431Z,0.60
2018-03-23T23:24:46.731Z,0.60
2018-03-23T23:29:50.884Z,0.60
2018-03-23T23:34:54.156Z,0.60
2018-03-23T23:39:57.377Z,0.70
2018-03-23T23:45:01.195Z,0.90
2018-03-23T23:50:04.830Z,0.90
2018-03-23T23:55:08.048Z,0.90
